Time;durP1;ratioP1;P1;durP2;ratioP2;P2;SDS_P1;SDS_P2;PMS_P1;PMS_P2;Temp;Humidity;BMP_temperature;BMP_pressure;BME280_temperature;BME280_humidity;BME280_pressure;Samples;Min_cycle;Max_cycle;Signal;HPM_P1;HPM_P2
2022/03/28 00:02:18;;;;;;;;;45.67;38.00;;;;;16.15;34.46;102059.50;4997011;28;45281;-73
2022/03/28 00:04:43;;;;;;;;;50.67;39.33;;;;;15.99;34.43;102039.50;4970833;28;45317;-72
2022/03/28 00:07:08;;;;;;;;;45.00;35.00;;;;;15.97;34.98;102019.19;4994722;28;45263;-72
2022/03/28 00:09:34;;;;;;;;;36.33;33.67;;;;;15.50;35.68;101954.88;4991017;28;45666;-72
2022/03/28 00:11:59;;;;;;;;;44.00;36.67;;;;;16.05;36.13;102055.03;5006578;28;45473;-73
2022/03/28 00:14:25;;;;;;;;;46.67;37.00;;;;;15.87;36.25;102032.66;4981548;28;45284;-73
2022/03/28 00:16:50;;;;;;;;;52.75;43.25;;;;;15.35;36.72;101954.47;4981731;28;45604;-71
2022/03/28 00:19:15;;;;;;;;;46.67;36.00;;;;;15.73;36.71;102019.72;4998189;28;45618;-72
2022/03/28 00:21:41;;;;;;;;;38.00;33.33;;;;;15.88;37.13;102052.28;4982398;28;45343;-71
2022/03/28 00:24:07;;;;;;;;;76.25;59.25;;;;;15.76;37.58;102030.13;4981658;28;45443;-72
2022/03/28 00:26:33;;;;;;;;;59.50;44.25;;;;;15.82;38.01;102051.03;4985084;28;45297;-73
2022/03/28 00:28:59;;;;;;;;;53.00;44.25;;;;;15.76;38.25;102032.81;4994346;28;47254;-73
2022/03/28 00:31:24;;;;;;;;;63.75;48.75;;;;;15.78;38.70;102041.56;4985223;28;45567;-72
2022/03/28 00:33:50;;;;;;;;;50.25;39.25;;;;;15.66;38.72;102023.97;4999321;28;45429;-77
2022/03/28 00:36:15;;;;;;;;;45.00;35.00;;;;;15.75;39.00;102044.53;4980648;28;45564;-72
2022/03/28 00:38:40;;;;;;;;;36.67;32.00;;;;;15.65;39.32;102028.50;4986296;28;45694;-70
2022/03/28 00:41:06;;;;;;;;;51.00;38.00;;;;;15.67;39.76;102028.34;4981500;28;45258;-71
2022/03/28 00:43:31;;;;;;;;;44.33;34.67;;;;;15.56;40.15;102020.44;4979778;28;45228;-70
2022/03/28 00:45:57;;;;;;;;;28.67;22.33;;;;;15.55;39.89;102019.59;4978779;28;45413;-72
2022/03/28 00:48:26;;;;;;;;;43.33;37.33;;;;;15.60;40.42;102027.22;4969588;28;46748;-71
2022/03/28 00:50:54;;;;;;;;;38.67;34.33;;;;;14.66;40.86;101877.13;4991705;28;45448;-73
2022/03/28 00:53:19;;;;;;;;;40.67;36.33;;;;;15.51;41.11;102027.09;4982520;28;45315;-72
2022/03/28 00:55:46;;;;;;;;;36.00;33.00;;;;;15.50;41.22;102029.91;4999049;28;45428;-73
2022/03/28 00:58:11;;;;;;;;;41.00;34.00;;;;;15.33;41.40;102006.53;4981229;28;45456;-71
2022/03/28 01:00:36;;;;;;;;;35.00;30.33;;;;;15.46;41.63;102029.38;4973625;28;45509;-72
2022/03/28 01:03:03;;;;;;;;;39.33;33.00;;;;;15.37;41.72;102018.66;4975350;28;45472;-72
2022/03/28 01:05:28;;;;;;;;;32.33;31.33;;;;;15.37;41.88;102014.13;4977052;28;45454;-72
2022/03/28 01:07:55;;;;;;;;;38.00;35.00;;;;;15.41;41.82;102020.88;4968346;28;47460;-72
2022/03/28 01:10:21;;;;;;;;;35.00;31.33;;;;;15.32;42.26;101994.97;4986712;28;45346;-71
2022/03/28 01:12:47;;;;;;;;;35.67;33.33;;;;;15.40;42.40;102007.63;4990104;28;45460;-72
2022/03/28 01:15:14;;;;;;;;;36.67;33.67;;;;;15.30;42.60;101994.28;4969611;28;45576;-71
2022/03/28 01:20:29;;;;;;;;;16.00;16.00;;;;;15.42;42.53;102006.53;4998351;28;45290;-73
2022/03/28 01:22:54;;;;;;;;;38.33;31.33;;;;;15.41;42.90;102002.13;4970079;28;45593;-72
2022/03/28 01:25:23;;;;;;;;;44.67;39.00;;;;;15.05;42.95;101954.72;4961454;28;45509;-72
2022/03/28 01:27:50;;;;;;;;;43.00;34.67;;;;;15.30;43.15;101994.28;5737556;22;46784;-71
2022/03/28 01:30:16;;;;;;;;;41.33;36.00;;;;;15.33;43.21;102003.84;5033398;28;46534;-72
2022/03/28 01:32:41;;;;;;;;;37.67;31.00;;;;;15.07;43.43;101958.94;5017759;28;45643;-73
2022/03/28 01:35:14;;;;;;;;;44.67;35.67;;;;;15.19;43.70;101981.03;5018182;28;45224;-73
2022/03/28 01:37:40;;;;;;;;;39.33;34.00;;;;;15.18;44.15;101990.06;5018134;28;45976;-71
2022/03/28 01:40:09;;;;;;;;;50.00;38.33;;;;;15.23;43.94;101997.69;5014366;28;47014;-71
2022/03/28 01:42:34;;;;;;;;;39.33;36.00;;;;;15.21;43.74;101989.75;5018148;28;45553;-71
2022/03/28 01:44:59;;;;;;;;;42.00;34.67;;;;;14.86;43.96;101929.66;5016567;28;45569;-75
2022/03/28 01:47:26;;;;;;;;;41.67;35.00;;;;;14.93;44.39;101950.47;5016924;28;47342;-71
2022/03/28 01:49:52;;;;;;;;;38.33;36.33;;;;;15.10;44.48;101979.22;5017881;28;45512;-71
2022/03/28 01:52:18;;;;;;;;;47.00;36.33;;;;;15.08;44.66;101970.50;5017390;28;45510;-72
2022/03/28 01:54:44;;;;;;;;;40.33;35.67;;;;;15.19;44.71;101987.22;5018192;28;45477;-74
2022/03/28 01:57:10;;;;;;;;;49.00;41.00;;;;;14.99;45.53;101961.47;5016298;28;47675;-71
2022/03/28 01:59:35;;;;;;;;;51.33;41.00;;;;;14.89;45.64;101947.25;5017557;28;45245;-72
2022/03/28 02:02:01;;;;;;;;;52.33;41.00;;;;;15.04;45.75;101982.47;5015711;28;45252;-71
2022/03/28 02:04:26;;;;;;;;;49.00;38.67;;;;;15.03;46.27;101981.63;5016036;28;45233;-72
2022/03/28 02:06:51;;;;;;;;;45.00;39.00;;;;;14.93;45.99;101971.91;5017636;28;46145;-73
2022/03/28 02:09:17;;;;;;;;;45.33;38.33;;;;;14.90;46.37;101968.53;5017524;28;45335;-71
2022/03/28 02:11:42;;;;;;;;;50.00;41.25;;;;;14.88;46.58;101969.66;5017586;28;45221;-73
2022/03/28 02:14:08;;;;;;;;;53.25;39.50;;;;;14.82;47.65;101972.91;5025026;28;45511;-71
2022/03/28 02:16:33;;;;;;;;;53.75;42.75;;;;;14.79;47.28;101976.69;5015162;28;48653;-74
2022/03/28 02:18:59;;;;;;;;;43.33;38.67;;;;;14.80;47.40;101975.72;5018902;28;45487;-72
2022/03/28 02:21:24;;;;;;;;;42.25;39.00;;;;;14.81;47.19;101976.56;5019031;28;45474;-72
2022/03/28 02:23:50;;;;;;;;;53.25;41.75;;;;;14.72;48.16;101972.06;5018386;28;45426;-74
2022/03/28 02:26:15;;;;;;;;;46.25;39.25;;;;;14.61;48.83;101968.53;5013030;28;47893;-72
2022/03/28 02:28:41;;;;;;;;;48.25;40.25;;;;;14.41;49.59;101961.44;5011774;28;45574;-73
2022/03/28 02:31:10;;;;;;;;;53.25;42.50;;;;;14.31;49.38;101947.22;5017380;28;45427;-72
2022/03/28 02:33:36;;;;;;;;;53.75;41.25;;;;;14.35;50.78;101962.00;5015920;28;45468;-73
2022/03/28 02:36:04;;;;;;;;;50.25;39.50;;;;;14.38;50.86;101971.56;5017074;28;45471;-72
2022/03/28 02:38:32;;;;;;;;;46.50;39.50;;;;;14.29;51.59;101962.56;5015778;28;45451;-72
2022/03/28 02:40:59;;;;;;;;;52.00;42.50;;;;;14.25;51.89;101967.34;5014996;28;45468;-72
2022/03/28 02:43:30;;;;;;;;;57.25;44.00;;;;;14.18;51.54;101955.50;5017310;28;45408;-71
2022/03/28 02:45:59;;;;;;;;;48.75;40.25;;;;;14.11;52.05;101948.16;5016724;28;46637;-71
2022/03/28 02:48:24;;;;;;;;;56.25;40.50;;;;;14.09;52.20;101950.97;5017031;28;45260;-72
2022/03/28 02:50:50;;;;;;;;;50.75;39.00;;;;;14.19;51.93;101953.66;5017084;28;45273;-70
2022/03/28 02:53:16;;;;;;;;;46.50;37.00;;;;;14.19;52.37;101957.19;5013459;28;45531;-71
2022/03/28 02:55:42;;;;;;;;;51.25;39.75;;;;;14.13;52.17;101935.50;5016081;28;47400;-72
2022/03/28 02:58:07;;;;;;;;;48.75;39.50;;;;;14.13;52.46;101935.50;5015879;28;45348;-71
2022/03/28 03:00:33;;;;;;;;;51.00;39.75;;;;;14.11;53.04;101943.66;5017323;28;45755;-71
2022/03/28 03:02:59;;;;;;;;;48.00;41.75;;;;;14.13;52.79;101933.66;5015628;28;45613;-71
2022/03/28 03:05:24;;;;;;;;;45.25;37.50;;;;;14.15;52.70;101928.19;5016787;28;46093;-73
2022/03/28 03:07:50;;;;;;;;;49.75;41.50;;;;;14.14;52.54;101924.66;5016463;28;45319;-74
2022/03/28 03:10:15;;;;;;;;;55.50;43.75;;;;;13.91;52.74;101873.25;5015346;28;45469;-71
2022/03/28 03:12:41;;;;;;;;;49.50;41.00;;;;;14.25;52.59;101931.72;5016902;28;45417;-71
2022/03/28 03:15:06;;;;;;;;;55.50;44.75;;;;;14.28;52.64;101928.78;5015024;28;47290;-71
2022/03/28 03:17:32;;;;;;;;;49.75;41.50;;;;;14.25;53.00;101919.19;5016945;28;45470;-71
2022/03/28 03:19:58;;;;;;;;;58.50;44.50;;;;;13.96;53.11;101876.34;5017730;28;45363;-73
2022/03/28 03:22:23;;;;;;;;;49.25;41.00;;;;;14.17;53.20;101900.31;5017204;28;45577;-73
2022/03/28 03:24:49;;;;;;;;;51.50;41.75;;;;;14.25;52.87;101918.34;5016295;28;45484;-71
2022/03/28 03:27:14;;;;;;;;;54.00;41.75;;;;;14.23;52.87;101909.63;5017809;28;45296;-70
2022/03/28 03:29:41;;;;;;;;;54.50;43.75;;;;;14.24;53.04;101911.31;5018488;28;45257;-72
2022/03/28 03:32:07;;;;;;;;;48.50;39.50;;;;;14.20;53.13;101909.88;5020054;28;45541;-72
2022/03/28 03:34:34;;;;;;;;;59.00;45.50;;;;;13.87;53.70;101855.81;5010392;28;47588;-72
2022/03/28 03:37:00;;;;;;;;;52.00;43.00;;;;;14.20;54.13;101916.06;5019981;28;45359;-71
2022/03/28 03:39:25;;;;;;;;;52.75;42.00;;;;;14.17;54.18;101918.19;5019495;28;45344;-71
2022/03/28 03:41:52;;;;;;;;;47.00;35.75;;;;;14.16;54.18;101916.50;5018594;28;45537;-73
2022/03/28 03:44:18;;;;;;;;;55.00;44.25;;;;;13.84;54.62;101872.13;5019366;28;46493;-72
2022/03/28 03:46:43;;;;;;;;;56.25;47.00;;;;;14.11;54.18;101921.41;5019848;28;45446;-72
2022/03/28 03:49:09;;;;;;;;;54.00;41.50;;;;;13.98;54.48;101900.28;5015232;28;45259;-73
2022/03/28 03:51:35;;;;;;;;;52.50;41.25;;;;;13.85;55.23;101895.22;5019956;28;45337;-72
2022/03/28 03:54:00;;;;;;;;;58.00;44.00;;;;;13.94;55.18;101912.22;5014908;28;48303;-72
2022/03/28 03:56:28;;;;;;;;;52.25;42.25;;;;;13.85;55.58;101899.72;5016751;28;45704;-73
2022/03/28 03:58:54;;;;;;;;;53.25;43.50;;;;;13.89;55.55;101898.44;5012084;28;45539;-73
2022/03/28 04:01:20;;;;;;;;;62.00;49.50;;;;;13.64;56.04;101875.75;5017105;28;45482;-74
2022/03/28 04:03:45;;;;;;;;;55.25;44.75;;;;;13.74;56.28;101907.81;5017894;28;47679;-74
2022/03/28 04:06:11;;;;;;;;;60.75;47.75;;;;;13.64;56.03;101891.78;5019206;28;45257;-72
2022/03/28 04:08:37;;;;;;;;;55.75;45.75;;;;;13.74;56.52;101907.81;5019496;28;45560;-72
2022/03/28 04:11:03;;;;;;;;;57.00;45.75;;;;;13.67;56.49;101894.16;5020207;28;45545;-72
2022/03/28 04:13:29;;;;;;;;;60.25;50.25;;;;;13.63;57.02;101898.94;5017544;28;46429;-71
2022/03/28 04:15:54;;;;;;;;;52.75;42.75;;;;;13.57;57.02;101891.44;5019340;28;45183;-73
2022/03/28 04:18:20;;;;;;;;;54.00;40.75;;;;;13.53;57.31;101892.72;5017452;28;45270;-72
2022/03/28 04:20:46;;;;;;;;;54.00;43.25;;;;;13.65;56.81;101915.69;5019689;28;45477;-71
2022/03/28 04:23:11;;;;;;;;;53.75;44.00;;;;;13.27;56.84;101849.59;5009322;28;47548;-74
2022/03/28 04:25:37;;;;;;;;;52.50;39.25;;;;;13.47;56.83;101889.75;5017642;28;45515;-71
2022/03/28 04:28:06;;;;;;;;;57.50;46.00;;;;;13.65;56.69;101920.19;5018916;28;45307;-72
2022/03/28 04:30:31;;;;;;;;;54.25;44.00;;;;;13.67;56.71;101910.19;5018809;28;45351;-73
2022/03/28 04:32:57;;;;;;;;;53.75;44.25;;;;;13.78;56.37;101922.59;5013850;28;48430;-71
2022/03/28 04:35:23;;;;;;;;;54.25;42.25;;;;;13.75;56.46;101907.69;5013202;28;45321;-72
2022/03/28 04:37:48;;;;;;;;;55.00;44.50;;;;;13.86;55.86;101909.41;5018447;28;45459;-72
2022/03/28 04:40:16;;;;;;;;;59.25;46.50;;;;;13.62;56.66;101893.75;5023640;28;45483;-70
2022/03/28 04:42:41;;;;;;;;;54.75;44.25;;;;;13.77;56.90;101910.22;5018197;28;45657;-72
2022/03/28 04:45:08;;;;;;;;;55.25;44.50;;;;;13.75;56.86;101913.03;5018570;28;45257;-72
2022/03/28 04:47:34;;;;;;;;;61.50;49.00;;;;;13.07;57.32;101808.59;5017415;28;45449;-72
2022/03/28 04:50:00;;;;;;;;;57.25;44.25;;;;;13.62;57.45;101905.28;5017279;28;45586;-74
2022/03/28 04:52:25;;;;;;;;;58.75;46.00;;;;;13.52;57.47;101887.50;5010800;28;48403;-71
2022/03/28 04:54:51;;;;;;;;;55.50;44.75;;;;;13.54;57.74;101901.56;5017070;28;45525;-73
2022/03/28 04:57:17;;;;;;;;;55.00;44.25;;;;;13.64;57.89;101911.31;5013956;28;45501;-72
2022/03/28 04:59:42;;;;;;;;;51.75;43.25;;;;;13.52;57.46;101877.66;4998417;28;45531;-71
2022/03/28 05:02:07;;;;;;;;;52.50;41.25;;;;;13.51;57.21;101875.13;5018206;28;46468;-71
2022/03/28 05:04:33;;;;;;;;;59.25;46.25;;;;;13.44;57.96;101877.50;5018572;28;45382;-74
2022/03/28 05:06:59;;;;;;;;;54.75;44.75;;;;;13.61;57.93;101902.69;5018285;28;45381;-73
2022/03/28 05:09:25;;;;;;;;;54.25;44.50;;;;;13.47;58.05;101879.91;5016333;28;45515;-72
2022/03/28 05:11:50;;;;;;;;;54.75;44.25;;;;;13.59;57.87;101900.16;5017605;28;46518;-72
2022/03/28 05:14:16;;;;;;;;;59.25;46.50;;;;;13.55;57.77;101890.75;5018650;28;45511;-72
2022/03/28 05:16:41;;;;;;;;;56.75;43.75;;;;;13.59;57.94;101900.16;5017352;28;45197;-73
2022/03/28 05:19:07;;;;;;;;;56.00;44.75;;;;;13.56;57.81;101879.06;5017270;28;45522;-72
2022/03/28 05:21:32;;;;;;;;;62.75;46.75;;;;;13.59;58.06;101886.81;5018204;28;46737;-71
2022/03/28 05:23:58;;;;;;;;;57.50;46.50;;;;;13.56;57.77;101879.06;5008363;28;46137;-73
2022/03/28 05:26:24;;;;;;;;;57.50;43.50;;;;;13.59;58.25;101886.81;5016974;28;45387;-74
2022/03/28 05:28:49;;;;;;;;;54.00;45.00;;;;;13.64;58.28;101900.63;5017799;28;45627;-74
2022/03/28 05:31:15;;;;;;;;;55.00;44.25;;;;;13.58;57.94;101887.78;5017205;28;45516;-74
2022/03/28 05:33:40;;;;;;;;;62.00;46.50;;;;;13.67;57.86;101889.66;5017813;28;45520;-71
2022/03/28 05:36:07;;;;;;;;;53.75;43.25;;;;;13.57;58.20;101890.59;5016420;28;45404;-72
2022/03/28 05:38:33;;;;;;;;;51.75;41.75;;;;;13.59;58.36;101883.28;5013738;28;45559;-74
2022/03/28 05:40:59;;;;;;;;;51.75;41.25;;;;;13.55;58.17;101872.03;5014900;28;45777;-73
2022/03/28 05:43:25;;;;;;;;;58.25;42.75;;;;;12.93;57.55;101770.72;5018486;28;45376;-74
2022/03/28 05:45:52;;;;;;;;;56.75;44.75;;;;;13.77;58.09;101903.03;5017035;28;45504;-72
2022/03/28 05:48:18;;;;;;;;;61.50;50.75;;;;;13.77;58.28;101897.69;5017639;28;46300;-73
2022/03/28 05:50:45;;;;;;;;;55.75;45.00;;;;;13.77;57.92;101887.00;5017154;28;45711;-75
2022/03/28 05:53:13;;;;;;;;;65.00;49.50;;;;;13.53;57.88;101849.97;5015450;28;45670;-73
2022/03/28 05:55:43;;;;;;;;;60.50;46.25;;;;;13.67;58.10;101873.63;5018133;28;45618;-73
2022/03/28 05:58:09;;;;;;;;;55.00;43.50;;;;;13.70;58.41;101873.34;5017189;28;45494;-74
2022/03/28 06:00:36;;;;;;;;;58.75;46.75;;;;;13.80;58.45;101884.06;5008051;28;47564;-73
2022/03/28 06:03:04;;;;;;;;;59.75;45.75;;;;;13.83;57.92;101886.47;5017405;28;45400;-75
2022/03/28 06:05:31;;;;;;;;;53.25;44.25;;;;;13.84;57.73;101869.47;5010270;28;45296;-73
2022/03/28 06:07:57;;;;;;;;;57.75;46.75;;;;;13.96;57.22;101878.19;5016571;28;45550;-73
2022/03/28 06:10:22;;;;;;;;;55.75;43.00;;;;;13.90;56.75;101855.53;5015469;28;48077;-75
2022/03/28 06:12:47;;;;;;;;;56.00;44.75;;;;;14.05;56.20;101863.16;5017984;28;45307;-71
2022/03/28 06:15:13;;;;;;;;;57.00;44.75;;;;;13.65;56.58;101794.59;5016695;28;45782;-74
2022/03/28 06:17:39;;;;;;;;;65.50;52.00;;;;;14.27;56.75;101893.16;5017616;28;45182;-72
2022/03/28 06:20:04;;;;;;;;;66.50;50.25;;;;;13.89;56.82;101837.81;5012673;28;45582;-72
2022/03/28 06:22:33;;;;;;;;;59.00;45.75;;;;;14.17;57.08;101886.09;5017767;28;45565;-77
2022/03/28 06:25:00;;;;;;;;;61.50;47.50;;;;;14.07;56.97;101864.69;5017224;28;45571;-76
2022/03/28 06:27:25;;;;;;;;;56.25;44.75;;;;;14.15;56.66;101864.00;5014257;28;45258;-73
2022/03/28 06:29:53;;;;;;;;;65.75;49.50;;;;;14.37;56.28;101876.25;5018957;28;46601;-72
2022/03/28 06:32:19;;;;;;;;;60.00;49.00;;;;;14.43;56.57;101883.72;5020686;28;45772;-73
2022/03/28 06:34:48;;;;;;;;;61.00;46.00;;;;;14.31;56.32;101856.25;5022986;28;45627;-74
2022/03/28 06:37:14;;;;;;;;;57.75;46.75;;;;;14.57;56.31;101891.34;5017036;28;45525;-76
2022/03/28 06:39:39;;;;;;;;;62.50;50.00;;;;;14.59;55.68;101866.13;5017989;28;45269;-75
2022/03/28 06:42:05;;;;;;;;;57.75;45.75;;;;;14.73;55.48;101874.69;5017470;28;45430;-74
2022/03/28 06:44:31;;;;;;;;;68.00;50.75;;;;;14.77;55.15;101871.59;5015634;28;45485;-74
2022/03/28 06:47:00;;;;;;;;;62.25;50.00;;;;;14.64;55.07;101840.78;5018848;28;45523;-75
2022/03/28 06:49:25;;;;;;;;;60.25;47.75;;;;;14.71;54.80;101852.59;5017330;28;45468;-75
2022/03/28 06:51:50;;;;;;;;;68.25;50.50;;;;;14.89;54.94;101862.41;5016743;28;45701;-76
2022/03/28 06:54:19;;;;;;;;;55.00;44.75;;;;;15.10;54.51;101883.63;5017190;28;45600;-78
2022/03/28 06:56:45;;;;;;;;;64.00;49.00;;;;;15.18;54.47;101872.19;5011445;28;45495;-72
2022/03/28 06:59:11;;;;;;;;;59.25;47.25;;;;;15.18;54.40;101882.91;5012461;28;45495;-73
2022/03/28 07:01:37;;;;;;;;;53.50;40.00;;;;;15.30;53.95;101878.22;5013986;28;45365;-69
2022/03/28 07:04:03;;;;;;;;;64.75;52.00;;;;;15.50;53.75;101877.13;5016438;28;45210;-72
2022/03/28 07:06:29;;;;;;;;;61.00;46.75;;;;;15.68;53.01;101872.72;5018494;28;45243;-71
2022/03/28 07:08:55;;;;;;;;;56.75;48.25;;;;;15.76;52.63;101864.75;5012556;28;45622;-71
2022/03/28 07:11:34;;;;;;;;;64.00;49.25;;;;;15.95;52.37;101854.88;5015245;28;45442;-70
2022/03/28 07:14:00;;;;;;;;;61.00;47.25;;;;;16.24;51.56;101852.84;4998415;28;45602;-70
2022/03/28 07:16:26;;;;;;;;;60.00;47.25;;;;;16.58;50.86;101870.88;5013275;28;45521;-73
2022/03/28 07:18:57;;;;;;;;;59.50;47.25;;;;;16.66;50.40;101842.31;5015346;28;47725;-69
2022/03/28 07:21:25;;;;;;;;;55.25;44.00;;;;;16.99;49.88;101853.25;5011430;28;45464;-74
2022/03/28 07:23:54;;;;;;;;;59.50;48.50;;;;;17.32;48.89;101865.88;5008131;28;45516;-69
2022/03/28 07:26:21;;;;;;;;;64.00;49.50;;;;;17.61;48.67;101870.00;5015198;28;45667;-70
2022/03/28 07:28:47;;;;;;;;;58.25;46.75;;;;;17.56;47.85;101797.91;5013699;28;48004;-70
2022/03/28 07:31:12;;;;;;;;;58.25;44.75;;;;;18.21;47.13;101845.63;5014285;28;45416;-69
2022/03/28 07:33:39;;;;;;;;;58.00;45.50;;;;;18.64;46.20;101851.75;5016646;28;45690;-70
2022/03/28 07:36:05;;;;;;;;;54.00;43.75;;;;;19.01;45.36;101862.75;5015491;28;45776;-70
2022/03/28 07:38:30;;;;;;;;;54.75;43.50;;;;;19.24;44.31;101844.03;5014943;28;46507;-70
2022/03/28 07:40:56;;;;;;;;;59.75;47.25;;;;;19.53;43.41;101846.09;5015117;28;45353;-72
2022/03/28 07:43:22;;;;;;;;;56.25;45.50;;;;;19.79;43.07;101845.81;5014592;28;45497;-70
2022/03/28 07:45:53;;;;;;;;;52.00;42.75;;;;;19.70;42.18;101788.34;5020758;28;45345;-70
2022/03/28 07:48:18;;;;;;;;;52.25;43.50;;;;;20.34;41.91;101840.19;5020933;28;45752;-70
2022/03/28 07:50:45;;;;;;;;;59.75;48.75;;;;;20.55;40.70;101846.78;5015452;28;45556;-71
2022/03/28 07:53:11;;;;;;;;;59.50;48.25;;;;;20.66;40.09;101846.38;5014295;28;45475;-72
2022/03/28 07:55:39;;;;;;;;;51.75;42.00;;;;;20.79;40.44;101851.97;5014472;28;45593;-69
2022/03/28 07:58:06;;;;;;;;;61.75;46.25;;;;;21.00;39.77;101850.41;5009672;28;46360;-73
2022/03/28 08:00:32;;;;;;;;;61.25;48.00;;;;;20.75;39.23;101812.81;5012908;28;45398;-73
2022/03/28 08:02:58;;;;;;;;;61.75;47.75;;;;;21.06;39.13;101836.16;5015421;28;45408;-72
2022/03/28 08:05:24;;;;;;;;;57.25;46.25;;;;;21.18;38.72;101821.97;5013809;28;45502;-70
2022/03/28 08:07:50;;;;;;;;;59.75;47.75;;;;;21.39;38.73;101836.63;5013331;28;47022;-69
2022/03/28 08:10:16;;;;;;;;;59.25;48.25;;;;;21.12;38.31;101762.41;5014870;28;45652;-71
2022/03/28 08:12:43;;;;;;;;;56.75;44.75;;;;;21.81;37.64;101836.72;5012288;28;45512;-71
2022/03/28 08:15:10;;;;;;;;;61.25;47.75;;;;;22.04;36.63;101842.00;5017812;28;45586;-70
2022/03/28 08:17:37;;;;;;;;;59.75;46.50;;;;;21.68;36.11;101777.03;5005657;28;48166;-72
2022/03/28 08:20:06;;;;;;;;;56.00;45.25;;;;;21.94;36.50;101819.78;5018245;28;45782;-71
2022/03/28 08:22:32;;;;;;;;;57.00;45.00;;;;;22.26;36.61;101833.88;5018415;28;45691;-72
2022/03/28 08:24:58;;;;;;;;;59.00;47.75;;;;;22.57;35.95;101845.19;5018483;28;45433;-69
2022/03/28 08:27:23;;;;;;;;;61.50;48.75;;;;;22.67;35.45;101824.00;5016481;28;47124;-73
2022/03/28 08:29:49;;;;;;;;;55.00;43.75;;;;;22.92;34.95;101823.59;5017784;28;45708;-70
2022/03/28 08:32:25;;;;;;;;;63.50;47.75;;;;;23.05;34.66;101807.41;5019002;28;45365;-75
2022/03/28 08:34:51;;;;;;;;;59.50;48.00;;;;;23.27;33.98;101806.25;5015922;28;45756;-72
2022/03/28 08:37:17;;;;;;;;;61.00;48.00;;;;;23.31;33.83;101831.94;5017116;28;46198;-72
2022/03/28 08:39:44;;;;;;;;;62.25;47.50;;;;;23.42;34.53;101824.25;5018057;28;45365;-71
2022/03/28 08:42:12;;;;;;;;;62.00;48.75;;;;;23.26;33.42;101792.88;5019414;28;45478;-75
2022/03/28 08:44:39;;;;;;;;;58.00;46.50;;;;;23.65;34.08;101820.22;5022673;28;45542;-70
2022/03/28 08:47:05;;;;;;;;;61.25;47.75;;;;;23.79;33.51;101791.19;5017952;28;45625;-70
2022/03/28 08:49:34;;;;;;;;;61.25;50.25;;;;;23.98;32.54;101798.53;5017019;28;45423;-71
2022/03/28 08:51:59;;;;;;;;;55.75;45.25;;;;;24.09;32.72;101809.84;5016464;28;45307;-72
2022/03/28 08:54:25;;;;;;;;;65.00;49.75;;;;;24.02;31.84;101781.81;5018687;28;45450;-71
2022/03/28 08:56:51;;;;;;;;;60.75;47.25;;;;;24.14;31.90;101772.03;5017986;28;45324;-71
2022/03/28 08:59:16;;;;;;;;;64.00;49.50;;;;;24.73;30.95;101811.97;5010090;28;45254;-72
2022/03/28 09:01:45;;;;;;;;;54.50;44.25;;;;;24.73;30.44;101817.41;5016551;28;45770;-69
2022/03/28 09:04:14;;;;;;;;;60.25;47.50;;;;;24.80;30.72;101812.78;5016258;28;45452;-71
2022/03/28 09:06:42;;;;;;;;;56.25;44.50;;;;;24.83;30.48;101779.75;5018078;28;45346;-69
2022/03/28 09:09:28;;;;;;;;;61.75;48.75;;;;;25.23;30.49;101798.66;5015479;28;47037;-70
2022/03/28 09:12:12;;;;;;;;;59.25;46.50;;;;;25.45;29.32;101800.91;5013409;28;45642;-70
2022/03/28 09:14:45;;;;;;;;;57.00;45.50;;;;;25.62;28.79;101762.25;5017566;28;45659;-69
2022/03/28 09:17:13;;;;;;;;;60.25;48.25;;;;;26.07;29.30;101801.19;5015790;28;46764;-70
2022/03/28 09:20:00;;;;;;;;;60.25;47.50;;;;;25.94;28.17;101722.25;5015981;28;45471;-72
2022/03/28 09:22:34;;;;;;;;;51.00;41.00;;;;;26.44;26.91;101769.44;5009165;28;45553;-71
2022/03/28 09:25:08;;;;;;;;;57.25;45.00;;;;;26.95;26.72;101790.94;5016441;28;45593;-70
2022/03/28 09:27:37;;;;;;;;;55.50;43.00;;;;;26.22;25.88;101640.00;5011871;28;45494;-71
2022/03/28 09:30:07;;;;;;;;;56.25;45.25;;;;;27.47;25.51;101805.03;5017141;28;45548;-71
2022/03/28 09:32:55;;;;;;;;;54.00;43.50;;;;;27.74;24.83;101799.25;5013629;28;45329;-70
2022/03/28 09:35:26;;;;;;;;;59.50;47.25;;;;;28.43;24.81;101803.19;5014807;28;45424;-70
2022/03/28 09:38:04;;;;;;;;;59.75;46.75;;;;;29.21;23.86;101791.84;5013212;28;46142;-72
2022/03/28 09:40:38;;;;;;;;;63.00;48.50;;;;;30.16;22.63;101793.13;5016428;28;45282;-69
2022/03/28 09:43:07;;;;;;;;;52.50;41.75;;;;;30.90;21.46;101793.72;5015859;28;45534;-69
2022/03/28 09:45:47;;;;;;;;;50.75;39.25;;;;;31.54;19.74;101780.25;5017827;28;45472;-72
2022/03/28 09:48:14;;;;;;;;;50.33;40.00;;;;;31.84;18.91;101779.75;5015995;28;47769;-68
2022/03/28 09:51:01;;;;;;;;;50.67;39.67;;;;;32.10;19.08;101783.56;5008394;28;45427;-70
2022/03/28 09:53:31;;;;;;;;;48.33;37.67;;;;;32.45;18.51;101783.03;5007483;28;45400;-68
2022/03/28 09:56:00;;;;;;;;;48.33;38.33;;;;;32.69;18.34;101775.19;5017249;28;45232;-70
2022/03/28 09:58:47;;;;;;;;;42.67;36.33;;;;;32.86;17.91;101767.59;5015486;28;47880;-70
2022/03/28 10:01:18;;;;;;;;;44.33;38.00;;;;;32.93;17.51;101764.59;5010725;28;45332;-68
2022/03/28 10:03:49;;;;;;;;;47.67;39.00;;;;;32.49;18.34;101764.06;5014661;28;45482;-70
2022/03/28 10:06:15;;;;;;;;;48.00;41.00;;;;;31.89;19.01;101767.97;5012700;28;45576;-70
2022/03/28 10:08:41;;;;;;;;;46.33;37.33;;;;;31.24;19.41;101763.44;5008637;28;47306;-69
2022/03/28 10:11:08;;;;;;;;;47.00;39.67;;;;;30.46;19.87;101768.94;5023480;28;45257;-70
2022/03/28 10:13:35;;;;;;;;;45.75;37.75;;;;;29.56;20.39;101736.94;5016813;28;45257;-70
2022/03/28 10:16:02;;;;;;;;;46.67;37.67;;;;;28.87;21.35;101736.13;5015246;28;45469;-71
2022/03/28 10:18:33;;;;;;;;;47.25;39.75;;;;;27.75;22.05;101676.03;5017007;28;45569;-70
2022/03/28 10:21:36;;;;;;;;;51.75;40.50;;;;;27.52;22.70;101752.44;5012467;28;45537;-71
2022/03/28 10:24:12;;;;;;;;;46.25;39.00;;;;;26.89;22.62;101720.91;4974689;28;45424;-71
2022/03/28 10:26:44;;;;;;;;;46.25;39.50;;;;;26.40;23.63;101730.03;5009795;28;45403;-71
2022/03/28 10:29:22;;;;;;;;;48.33;39.00;;;;;26.24;24.22;101733.31;5013070;28;47261;-71
2022/03/28 10:32:02;;;;;;;;;46.67;39.33;;;;;25.72;24.49;101708.16;5012391;28;45500;-70
2022/03/28 10:35:16;;;;;;;;;;;;;;;;;;;;;
2022/03/28 10:37:45;;;;;;;;;45.33;34.33;;;;;24.87;24.13;101704.81;5014229;28;63436;-71
2022/03/28 10:40:23;;;;;;;;;44.67;35.00;;;;;24.81;24.71;101705.66;5016172;28;46115;-72
2022/03/28 10:42:55;;;;;;;;;44.67;36.33;;;;;24.72;24.81;101725.97;5013055;28;45388;-72
2022/03/28 10:45:21;;;;;;;;;43.00;35.33;;;;;24.42;24.38;101707.41;5015062;28;45398;-72
2022/03/28 10:47:59;;;;;;;;;40.33;34.67;;;;;24.30;24.99;101709.13;5008816;28;45423;-73
2022/03/28 10:50:51;;;;;;;;;38.67;33.33;;;;;24.03;24.49;101681.13;5012951;28;45474;-71
2022/03/28 10:53:18;;;;;;;;;37.00;33.33;;;;;24.01;25.72;101712.25;5009039;28;45558;-70
2022/03/28 10:55:52;;;;;;;;;41.00;34.00;;;;;23.81;25.90;101704.91;5015678;28;45245;-69
2022/03/28 10:58:26;;;;;;;;;41.00;34.00;;;;;23.62;24.89;101695.72;5010974;28;45419;-70
2022/03/28 11:01:15;;;;;;;;;36.00;33.33;;;;;23.57;25.20;101700.09;5012962;28;46795;-70
2022/03/28 11:04:00;;;;;;;;;41.33;31.67;;;;;23.41;25.28;101705.88;5013672;28;45482;-70
2022/03/28 11:06:50;;;;;;;;;37.00;31.33;;;;;23.23;25.57;101695.63;5012810;28;45455;-69
2022/03/28 11:09:50;;;;;;;;;41.00;32.33;;;;;23.12;25.53;101683.47;5007631;28;45325;-73
2022/03/28 11:12:42;;;;;;;;;41.33;35.00;;;;;22.96;26.21;101678.41;5007859;28;47378;-70
2022/03/28 11:15:19;;;;;;;;;40.33;33.67;;;;;22.88;25.79;101673.16;4995949;28;45595;-70
2022/03/28 11:18:10;;;;;;;;;41.00;35.00;;;;;22.78;26.24;101671.63;5011422;28;45493;-70